This is the latest recevied weather packets stored in our database for station/object SV3AQT-13. If no packets are shown the sender has not sent any weather packets the latest 10 day(s).
| Time | Temp. | Humidity | Pressure | Rain* | Wind** | Luminosity | Snow |
|---|---|---|---|---|---|---|---|
| 1788443205 | 29.44° C | 72% | 1013.8 hPa | 0 mm | 1.79 m/s, 65° | - | - |
| 1788433000 | 31.67° C | 65% | 1014.5 hPa | 0 mm | 0.45 m/s, 90° | - | - |
| 1788432399 | 31.11° C | 65% | 1014.9 hPa | 0 mm | 0 m/s | - | - |
| 1788431799 | 30.56° C | 66% | 1014.9 hPa | 0 mm | 1.34 m/s, 55° | - | - |
| 1788431200 | 30.56° C | 64% | 1014.9 hPa | 0 mm | 0.45 m/s, 63° | - | - |
| 1788430599 | 30.56° C | 64% | 1015.2 hPa | 0 mm | 1.34 m/s, 18° | - | - |
| 1788429999 | 30.56° C | 64% | 1015.2 hPa | 0 mm | 1.34 m/s, 67° | - | - |
| 1788428205 | 30° C | 69% | 1015.9 hPa | 0 mm | 0.89 m/s, 53° | - | - |
| 1788427599 | 28.33° C | 76% | 1015.9 hPa | 0 mm | 0.89 m/s, 64° | - | - |
| 1788425808 | 29.44° C | 72% | 1016.2 hPa | 0 mm | 0 m/s | - | - |
| 1788422199 | 32.78° C | 64% | 1016.5 hPa | 0 mm | 0 m/s | - | - |
| 1788421000 | 32.78° C | 61% | 1016.5 hPa | 0 mm | 0 m/s | - | - |
| 1788420400 | 33.33° C | 59% | 1016.5 hPa | 0 mm | 0 m/s | - | - |
| 1788419798 | 32.22° C | 63% | 1016.5 hPa | 0 mm | 0 m/s | - | - |
| 1788419199 | 32.22° C | 64% | 1016.5 hPa | 0 mm | 0 m/s | - | - |
| 1788418598 | 31.11° C | 65% | 1016.5 hPa | 0 mm | 0 m/s | - | - |
| 1788417998 | 30.56° C | 67% | 1016.5 hPa | 0 mm | 0 m/s | - | - |
| 1788417398 | 30° C | 65% | 1016.5 hPa | 0 mm | 0 m/s | - | - |
| 1788416798 | 30° C | 65% | 1016.5 hPa | 0 mm | 0 m/s | - | - |
| 1788416198 | 30° C | 61% | 1016.5 hPa | 0 mm | 0 m/s | - | - |
| 1788415599 | 29.44° C | 61% | 1016.5 hPa | 0 mm | 0 m/s | - | - |
| 1788415001 | 28.89° C | 63% | 1016.5 hPa | 0 mm | 0 m/s | - | - |
| 1788414400 | 28.33° C | 68% | 1016.5 hPa | 0 mm | 0 m/s | - | - |
| 1788413199 | 25.56° C | 72% | 1016.5 hPa | 0 mm | 0 m/s | - | - |
| 1788412600 | 24.44° C | 73% | 1016.5 hPa | 0 mm | 0 m/s | - | - |
* Rain latest hour (hover to see other rain measurements)
** Current wind speed in m/s (hover to see current wind gust speed)